Russellville, Missouri
Current Conditions -  °F | °C
As of 3:53 AM on Thursday 29 Jan 2015 (Local Time) from KJEF Reporting Station
Clear Clear  
Wind Chill: 42°   Ceiling: Unl
Heat Index: 49°   Visibility: 10mi
Dew Point: 37°   Wind: 21mph
Humidity: 64%   Direction: 300°WNW
Pressure: 29.9"   Gusts: 26mph
Location:  38.51°N, 92.44°W
Report Text: KJEF 290953Z AUTO 30018G23KT 10SM CLR 09/03 A2990 RMK AO2 PK WND 30029/0901 SLP113 T00940028
Loading
Personal Weather Stations






























Interactive Weather Map New forecast layout! Learn more

10-Day Weather Forecast

Advertisements
Track Severe Weather on mobile